Sharon, Michigan
Current Conditions -  °F | °C
As of 6:05 AM on Sunday 23 Nov 2014 (Local Time) from KARB Reporting Station
Light Rain Light Rain  
Wind Chill:   Ceiling: 2500
Heat Index:   Visibility: 7mi
Dew Point:   Wind: 9mph
Humidity: 89%   Direction: 190°S
Pressure: 29.93"   Gusts: NA
Location:  42.1633°N, 84.0265°W
Report Text: KARB 231105Z AUTO 19008KT 7SM -RA BKN025 OVC045 07/05 A2993 RMK AO2 P0001 T00670050
Loading
Personal Weather Stations






























Interactive Weather Map New forecast layout! Learn more

10-Day Weather Forecast

Advertisements
Track Severe Weather on mobile